sensor_id;sensor_type;location;lat;lon;timestamp;pressure;altitude;pressure_sealevel;temperature;humidity
19457;BME280;9867;48.094;11.478;2023-05-20T00:01:27;95199.88;;;14.15;100.00
19457;BME280;9867;48.094;11.478;2023-05-20T00:03:55;95192.81;;;14.22;100.00
19457;BME280;9867;48.094;11.478;2023-05-20T00:06:24;95183.94;;;14.18;100.00
19457;BME280;9867;48.094;11.478;2023-05-20T00:08:53;95183.97;;;13.99;100.00
19457;BME280;9867;48.094;11.478;2023-05-20T00:11:21;95180.53;;;14.06;100.00
19457;BME280;9867;48.094;11.478;2023-05-20T00:13:50;95196.97;;;14.23;100.00
19457;BME280;9867;48.094;11.478;2023-05-20T00:16:18;95172.31;;;14.27;100.00
19457;BME280;9867;48.094;11.478;2023-05-20T00:18:46;95185.66;;;14.42;100.00
19457;BME280;9867;48.094;11.478;2023-05-20T00:21:14;95190.03;;;14.42;100.00
19457;BME280;9867;48.094;11.478;2023-05-20T00:23:42;95186.50;;;14.36;100.00
19457;BME280;9867;48.094;11.478;2023-05-20T00:26:11;95183.56;;;14.32;100.00
19457;BME280;9867;48.094;11.478;2023-05-20T00:28:40;95182.44;;;14.28;100.00
19457;BME280;9867;48.094;11.478;2023-05-20T00:31:08;95200.13;;;14.25;100.00
19457;BME280;9867;48.094;11.478;2023-05-20T00:33:36;95183.31;;;14.41;100.00
19457;BME280;9867;48.094;11.478;2023-05-20T00:36:05;95191.59;;;14.43;100.00
19457;BME280;9867;48.094;11.478;2023-05-20T00:38:33;95194.03;;;14.19;100.00
19457;BME280;9867;48.094;11.478;2023-05-20T00:41:00;95190.34;;;14.15;100.00
19457;BME280;9867;48.094;11.478;2023-05-20T00:43:30;95181.06;;;14.26;100.00
19457;BME280;9867;48.094;11.478;2023-05-20T00:45:59;95189.47;;;14.21;100.00
19457;BME280;9867;48.094;11.478;2023-05-20T00:48:32;95183.69;;;14.08;100.00
19457;BME280;9867;48.094;11.478;2023-05-20T00:51:02;95183.31;;;14.04;100.00
19457;BME280;9867;48.094;11.478;2023-05-20T00:53:30;95175.75;;;13.91;100.00
19457;BME280;9867;48.094;11.478;2023-05-20T00:55:58;95187.50;;;13.87;100.00
19457;BME280;9867;48.094;11.478;2023-05-20T00:58:27;95188.13;;;14.00;100.00
19457;BME280;9867;48.094;11.478;2023-05-20T01:00:56;95191.78;;;14.11;100.00
19457;BME280;9867;48.094;11.478;2023-05-20T01:03:24;95188.69;;;14.03;100.00
19457;BME280;9867;48.094;11.478;2023-05-20T01:05:56;95177.38;;;14.04;100.00
19457;BME280;9867;48.094;11.478;2023-05-20T01:08:26;95177.44;;;14.15;100.00
19457;BME280;9867;48.094;11.478;2023-05-20T01:11:02;95173.38;;;14.08;100.00
19457;BME280;9867;48.094;11.478;2023-05-20T01:13:43;95161.69;;;13.87;100.00
19457;BME280;9867;48.094;11.478;2023-05-20T01:16:17;95177.31;;;14.10;100.00
19457;BME280;9867;48.094;11.478;2023-05-20T01:18:46;95174.06;;;14.15;100.00
19457;BME280;9867;48.094;11.478;2023-05-20T01:21:19;95168.41;;;14.06;100.00
19457;BME280;9867;48.094;11.478;2023-05-20T01:23:49;95168.84;;;14.03;100.00
19457;BME280;9867;48.094;11.478;2023-05-20T01:26:17;95164.69;;;14.02;100.00
19457;BME280;9867;48.094;11.478;2023-05-20T01:28:47;95144.91;;;13.96;100.00
19457;BME280;9867;48.094;11.478;2023-05-20T01:31:20;95151.44;;;13.98;100.00
19457;BME280;9867;48.094;11.478;2023-05-20T01:33:55;95149.06;;;13.97;100.00
19457;BME280;9867;48.094;11.478;2023-05-20T01:36:25;95159.16;;;13.98;100.00
19457;BME280;9867;48.094;11.478;2023-05-20T01:38:56;95158.72;;;14.20;100.00
19457;BME280;9867;48.094;11.478;2023-05-20T01:41:26;95154.22;;;14.15;100.00
19457;BME280;9867;48.094;11.478;2023-05-20T01:43:55;95161.84;;;14.22;100.00
19457;BME280;9867;48.094;11.478;2023-05-20T01:46:30;95146.78;;;14.37;100.00
19457;BME280;9867;48.094;11.478;2023-05-20T01:48:59;95135.94;;;14.17;100.00
19457;BME280;9867;48.094;11.478;2023-05-20T01:51:27;95153.88;;;14.12;100.00
19457;BME280;9867;48.094;11.478;2023-05-20T01:53:57;95134.22;;;14.11;100.00
19457;BME280;9867;48.094;11.478;2023-05-20T01:56:26;95146.38;;;14.22;100.00
19457;BME280;9867;48.094;11.478;2023-05-20T01:58:53;95146.91;;;14.12;100.00
19457;BME280;9867;48.094;11.478;2023-05-20T02:01:23;95150.50;;;14.11;100.00
19457;BME280;9867;48.094;11.478;2023-05-20T02:03:51;95123.91;;;14.11;100.00
19457;BME280;9867;48.094;11.478;2023-05-20T02:06:19;95144.34;;;14.12;100.00
19457;BME280;9867;48.094;11.478;2023-05-20T02:08:47;95135.38;;;13.96;100.00
19457;BME280;9867;48.094;11.478;2023-05-20T02:11:17;95145.91;;;14.13;100.00
19457;BME280;9867;48.094;11.478;2023-05-20T02:13:46;95143.97;;;14.09;100.00
19457;BME280;9867;48.094;11.478;2023-05-20T02:16:14;95140.25;;;14.05;100.00
19457;BME280;9867;48.094;11.478;2023-05-20T02:18:44;95146.91;;;14.12;100.00
19457;BME280;9867;48.094;11.478;2023-05-20T02:21:15;95148.13;;;14.10;100.00
19457;BME280;9867;48.094;11.478;2023-05-20T02:23:43;95140.75;;;13.95;100.00
19457;BME280;9867;48.094;11.478;2023-05-20T02:26:12;95159.81;;;14.12;100.00
19457;BME280;9867;48.094;11.478;2023-05-20T02:28:41;95142.69;;;13.99;100.00
19457;BME280;9867;48.094;11.478;2023-05-20T02:31:13;95140.44;;;13.91;100.00
19457;BME280;9867;48.094;11.478;2023-05-20T02:33:41;95142.44;;;13.89;100.00
19457;BME280;9867;48.094;11.478;2023-05-20T02:36:09;95149.81;;;13.86;100.00
19457;BME280;9867;48.094;11.478;2023-05-20T02:38:37;95150.03;;;13.84;100.00
19457;BME280;9867;48.094;11.478;2023-05-20T02:41:05;95151.06;;;13.95;100.00
19457;BME280;9867;48.094;11.478;2023-05-20T02:43:33;95145.22;;;13.88;100.00
19457;BME280;9867;48.094;11.478;2023-05-20T02:46:03;95151.28;;;14.12;100.00
19457;BME280;9867;48.094;11.478;2023-05-20T02:48:31;95153.06;;;14.11;100.00
19457;BME280;9867;48.094;11.478;2023-05-20T02:51:00;95151.88;;;14.14;100.00
19457;BME280;9867;48.094;11.478;2023-05-20T02:53:28;95153.66;;;14.13;100.00
19457;BME280;9867;48.094;11.478;2023-05-20T02:55:56;95157.19;;;14.30;100.00
19457;BME280;9867;48.094;11.478;2023-05-20T02:58:27;95131.69;;;14.22;100.00
19457;BME280;9867;48.094;11.478;2023-05-20T03:00:55;95148.97;;;14.22;100.00
19457;BME280;9867;48.094;11.478;2023-05-20T03:03:26;95142.06;;;13.86;100.00
19457;BME280;9867;48.094;11.478;2023-05-20T03:05:54;95132.34;;;13.88;100.00
19457;BME280;9867;48.094;11.478;2023-05-20T03:08:22;95143.34;;;13.95;100.00
19457;BME280;9867;48.094;11.478;2023-05-20T03:10:50;95138.44;;;13.93;100.00
19457;BME280;9867;48.094;11.478;2023-05-20T03:13:20;95140.47;;;14.03;100.00
19457;BME280;9867;48.094;11.478;2023-05-20T03:15:47;95135.66;;;14.07;100.00
19457;BME280;9867;48.094;11.478;2023-05-20T03:18:16;95141.44;;;13.90;100.00
19457;BME280;9867;48.094;11.478;2023-05-20T03:20:45;95141.75;;;13.94;100.00
19457;BME280;9867;48.094;11.478;2023-05-20T03:23:13;95133.94;;;14.00;100.00
19457;BME280;9867;48.094;11.478;2023-05-20T03:25:41;95135.59;;;13.95;100.00
19457;BME280;9867;48.094;11.478;2023-05-20T03:28:10;95137.84;;;13.91;100.00
19457;BME280;9867;48.094;11.478;2023-05-20T03:30:38;95140.13;;;13.99;100.00
19457;BME280;9867;48.094;11.478;2023-05-20T03:33:06;95139.91;;;14.01;100.00
19457;BME280;9867;48.094;11.478;2023-05-20T03:35:34;95137.28;;;14.19;100.00
19457;BME280;9867;48.094;11.478;2023-05-20T03:38:04;95145.69;;;14.15;100.00
19457;BME280;9867;48.094;11.478;2023-05-20T03:40:34;95141.25;;;14.04;100.00
19457;BME280;9867;48.094;11.478;2023-05-20T03:43:03;95144.50;;;13.81;100.00
19457;BME280;9867;48.094;11.478;2023-05-20T03:45:31;95145.47;;;13.68;100.00
19457;BME280;9867;48.094;11.478;2023-05-20T03:48:06;95148.72;;;13.75;100.00
19457;BME280;9867;48.094;11.478;2023-05-20T03:50:34;95140.50;;;13.85;100.00
19457;BME280;9867;48.094;11.478;2023-05-20T03:53:04;95156.63;;;13.80;100.00
19457;BME280;9867;48.094;11.478;2023-05-20T03:55:40;95156.47;;;13.93;100.00
19457;BME280;9867;48.094;11.478;2023-05-20T03:58:10;95157.03;;;13.95;100.00
19457;BME280;9867;48.094;11.478;2023-05-20T04:00:39;95146.19;;;14.05;100.00
19457;BME280;9867;48.094;11.478;2023-05-20T04:03:07;95153.91;;;13.93;100.00
19457;BME280;9867;48.094;11.478;2023-05-20T04:05:36;95148.38;;;13.72;100.00
19457;BME280;9867;48.094;11.478;2023-05-20T04:08:13;95137.72;;;13.68;100.00
19457;BME280;9867;48.094;11.478;2023-05-20T04:10:41;95138.63;;;13.74;100.00
19457;BME280;9867;48.094;11.478;2023-05-20T04:13:10;95129.41;;;13.84;100.00
19457;BME280;9867;48.094;11.478;2023-05-20T04:15:39;95133.69;;;13.90;100.00
19457;BME280;9867;48.094;11.478;2023-05-20T04:18:08;95125.28;;;13.95;100.00
19457;BME280;9867;48.094;11.478;2023-05-20T04:20:36;95128.94;;;14.06;100.00
19457;BME280;9867;48.094;11.478;2023-05-20T04:23:07;95132.00;;;13.96;100.00
19457;BME280;9867;48.094;11.478;2023-05-20T04:25:36;95129.91;;;13.93;100.00
19457;BME280;9867;48.094;11.478;2023-05-20T04:28:05;95137.25;;;14.08;100.00
19457;BME280;9867;48.094;11.478;2023-05-20T04:30:33;95127.84;;;14.13;100.00
19457;BME280;9867;48.094;11.478;2023-05-20T04:33:01;95125.38;;;14.18;100.00
19457;BME280;9867;48.094;11.478;2023-05-20T04:35:30;95128.22;;;14.17;100.00
19457;BME280;9867;48.094;11.478;2023-05-20T04:38:03;95119.19;;;14.08;100.00
19457;BME280;9867;48.094;11.478;2023-05-20T04:40:31;95122.56;;;14.08;100.00
19457;BME280;9867;48.094;11.478;2023-05-20T04:43:00;95132.78;;;14.15;100.00
19457;BME280;9867;48.094;11.478;2023-05-20T04:45:30;95131.53;;;14.17;100.00
19457;BME280;9867;48.094;11.478;2023-05-20T04:47:59;95146.88;;;14.30;100.00
19457;BME280;9867;48.094;11.478;2023-05-20T04:50:27;95125.38;;;14.18;100.00
19457;BME280;9867;48.094;11.478;2023-05-20T04:52:55;95130.69;;;13.93;100.00
19457;BME280;9867;48.094;11.478;2023-05-20T04:55:27;95139.03;;;14.07;100.00
19457;BME280;9867;48.094;11.478;2023-05-20T04:58:00;95141.44;;;14.20;100.00
19457;BME280;9867;48.094;11.478;2023-05-20T05:00:29;95127.78;;;14.02;100.00
19457;BME280;9867;48.094;11.478;2023-05-20T05:02:57;95142.63;;;14.06;100.00
19457;BME280;9867;48.094;11.478;2023-05-20T05:05:25;95134.69;;;14.19;100.00
19457;BME280;9867;48.094;11.478;2023-05-20T05:07:53;95136.56;;;14.30;100.00
19457;BME280;9867;48.094;11.478;2023-05-20T05:10:21;95134.38;;;14.16;100.00
19457;BME280;9867;48.094;11.478;2023-05-20T05:12:53;95119.75;;;13.61;100.00
19457;BME280;9867;48.094;11.478;2023-05-20T05:15:22;95125.53;;;13.75;100.00
19457;BME280;9867;48.094;11.478;2023-05-20T05:17:50;95131.38;;;14.00;100.00
19457;BME280;9867;48.094;11.478;2023-05-20T05:20:18;95124.69;;;14.11;100.00
19457;BME280;9867;48.094;11.478;2023-05-20T05:22:49;95120.03;;;14.02;100.00
19457;BME280;9867;48.094;11.478;2023-05-20T05:25:17;95111.53;;;14.01;100.00
19457;BME280;9867;48.094;11.478;2023-05-20T05:27:45;95118.44;;;14.19;100.00
19457;BME280;9867;48.094;11.478;2023-05-20T05:30:15;95123.25;;;14.15;100.00
19457;BME280;9867;48.094;11.478;2023-05-20T05:32:44;95114.59;;;14.10;100.00
19457;BME280;9867;48.094;11.478;2023-05-20T05:35:12;95120.34;;;14.23;100.00
19457;BME280;9867;48.094;11.478;2023-05-20T05:37:40;95127.19;;;14.48;100.00
19457;BME280;9867;48.094;11.478;2023-05-20T05:40:09;95120.94;;;14.25;100.00
19457;BME280;9867;48.094;11.478;2023-05-20T05:42:37;95131.53;;;14.36;100.00
19457;BME280;9867;48.094;11.478;2023-05-20T05:45:07;95125.09;;;14.56;100.00
19457;BME280;9867;48.094;11.478;2023-05-20T05:47:36;95135.34;;;14.75;100.00
19457;BME280;9867;48.094;11.478;2023-05-20T05:50:05;95127.16;;;14.78;100.00
19457;BME280;9867;48.094;11.478;2023-05-20T05:52:34;95129.38;;;14.32;100.00
19457;BME280;9867;48.094;11.478;2023-05-20T05:55:04;95137.44;;;14.66;100.00
19457;BME280;9867;48.094;11.478;2023-05-20T05:57:33;95141.00;;;14.83;100.00
19457;BME280;9867;48.094;11.478;2023-05-20T06:00:02;95136.59;;;14.42;100.00
19457;BME280;9867;48.094;11.478;2023-05-20T06:02:43;95132.56;;;14.46;100.00
19457;BME280;9867;48.094;11.478;2023-05-20T06:05:30;95130.75;;;14.77;100.00
19457;BME280;9867;48.094;11.478;2023-05-20T06:07:59;95133.47;;;14.93;100.00
19457;BME280;9867;48.094;11.478;2023-05-20T06:10:31;95126.38;;;15.12;100.00
19457;BME280;9867;48.094;11.478;2023-05-20T06:12:59;95131.69;;;15.29;100.00
19457;BME280;9867;48.094;11.478;2023-05-20T06:15:27;95143.94;;;15.22;100.00
19457;BME280;9867;48.094;11.478;2023-05-20T06:17:58;95134.03;;;15.19;100.00
19457;BME280;9867;48.094;11.478;2023-05-20T06:20:26;95142.81;;;15.29;100.00
19457;BME280;9867;48.094;11.478;2023-05-20T06:22:56;95131.31;;;15.37;100.00
19457;BME280;9867;48.094;11.478;2023-05-20T06:25:30;95128.88;;;15.30;100.00
19457;BME280;9867;48.094;11.478;2023-05-20T06:27:58;95134.38;;;15.69;100.00
19457;BME280;9867;48.094;11.478;2023-05-20T06:30:26;95135.59;;;15.66;100.00
19457;BME280;9867;48.094;11.478;2023-05-20T06:32:54;95126.44;;;15.87;100.00
19457;BME280;9867;48.094;11.478;2023-05-20T06:35:22;95127.06;;;15.78;100.00
19457;BME280;9867;48.094;11.478;2023-05-20T06:37:50;95122.56;;;15.50;100.00
19457;BME280;9867;48.094;11.478;2023-05-20T06:40:19;95124.59;;;15.59;100.00
19457;BME280;9867;48.094;11.478;2023-05-20T06:42:48;95123.81;;;15.00;100.00
19457;BME280;9867;48.094;11.478;2023-05-20T06:45:17;95116.16;;;15.41;100.00
19457;BME280;9867;48.094;11.478;2023-05-20T06:47:51;95127.19;;;15.24;100.00
19457;BME280;9867;48.094;11.478;2023-05-20T06:50:20;95127.41;;;14.88;100.00
19457;BME280;9867;48.094;11.478;2023-05-20T06:52:48;95119.19;;;14.91;100.00
19457;BME280;9867;48.094;11.478;2023-05-20T06:55:19;95112.81;;;15.05;100.00
19457;BME280;9867;48.094;11.478;2023-05-20T06:57:48;95112.44;;;15.48;100.00
19457;BME280;9867;48.094;11.478;2023-05-20T07:00:17;95110.91;;;15.59;100.00
19457;BME280;9867;48.094;11.478;2023-05-20T07:02:46;95117.81;;;15.82;100.00
19457;BME280;9867;48.094;11.478;2023-05-20T07:05:14;95117.50;;;15.66;100.00
19457;BME280;9867;48.094;11.478;2023-05-20T07:07:44;95120.19;;;15.60;100.00
19457;BME280;9867;48.094;11.478;2023-05-20T07:10:12;95119.91;;;15.33;100.00
19457;BME280;9867;48.094;11.478;2023-05-20T07:12:42;95113.34;;;15.42;100.00
19457;BME280;9867;48.094;11.478;2023-05-20T07:15:10;95113.66;;;15.81;100.00
19457;BME280;9867;48.094;11.478;2023-05-20T07:17:38;95113.84;;;16.19;100.00
19457;BME280;9867;48.094;11.478;2023-05-20T07:20:07;95114.81;;;16.30;100.00
19457;BME280;9867;48.094;11.478;2023-05-20T07:22:35;95109.69;;;16.47;100.00
19457;BME280;9867;48.094;11.478;2023-05-20T07:25:10;95094.84;;;16.59;100.00
19457;BME280;9867;48.094;11.478;2023-05-20T07:27:38;95108.25;;;16.67;100.00
19457;BME280;9867;48.094;11.478;2023-05-20T07:30:08;95111.81;;;16.50;100.00
19457;BME280;9867;48.094;11.478;2023-05-20T07:32:38;95108.03;;;16.41;100.00
19457;BME280;9867;48.094;11.478;2023-05-20T07:35:07;95105.66;;;16.56;100.00
19457;BME280;9867;48.094;11.478;2023-05-20T07:37:35;95107.38;;;15.77;100.00
19457;BME280;9867;48.094;11.478;2023-05-20T07:40:06;95105.59;;;15.65;100.00
19457;BME280;9867;48.094;11.478;2023-05-20T07:42:36;95107.25;;;15.72;100.00
19457;BME280;9867;48.094;11.478;2023-05-20T07:45:05;95093.03;;;15.86;100.00
19457;BME280;9867;48.094;11.478;2023-05-20T07:47:34;95100.25;;;15.84;100.00
19457;BME280;9867;48.094;11.478;2023-05-20T07:50:03;95094.88;;;15.74;100.00
19457;BME280;9867;48.094;11.478;2023-05-20T07:52:33;95096.63;;;15.56;100.00
19457;BME280;9867;48.094;11.478;2023-05-20T07:55:21;95103.13;;;15.47;100.00
19457;BME280;9867;48.094;11.478;2023-05-20T07:57:49;95103.22;;;15.64;100.00
19457;BME280;9867;48.094;11.478;2023-05-20T08:00:18;95112.31;;;15.66;100.00
19457;BME280;9867;48.094;11.478;2023-05-20T08:02:47;95117.22;;;15.91;100.00
19457;BME280;9867;48.094;11.478;2023-05-20T08:05:22;95111.16;;;16.14;100.00
19457;BME280;9867;48.094;11.478;2023-05-20T08:07:50;95101.97;;;16.07;100.00
19457;BME280;9867;48.094;11.478;2023-05-20T08:10:20;95099.69;;;16.10;100.00
19457;BME280;9867;48.094;11.478;2023-05-20T08:12:48;95094.28;;;16.40;100.00
19457;BME280;9867;48.094;11.478;2023-05-20T08:15:16;95105.75;;;16.44;100.00
19457;BME280;9867;48.094;11.478;2023-05-20T08:17:47;95104.41;;;16.70;100.00
19457;BME280;9867;48.094;11.478;2023-05-20T08:20:15;95094.50;;;16.84;100.00
19457;BME280;9867;48.094;11.478;2023-05-20T08:22:43;95101.13;;;16.63;100.00
19457;BME280;9867;48.094;11.478;2023-05-20T08:25:11;95102.28;;;16.84;100.00
19457;BME280;9867;48.094;11.478;2023-05-20T08:27:39;95097.63;;;17.02;100.00
19457;BME280;9867;48.094;11.478;2023-05-20T08:30:09;95092.19;;;17.04;100.00
19457;BME280;9867;48.094;11.478;2023-05-20T08:32:37;95093.78;;;17.22;100.00
19457;BME280;9867;48.094;11.478;2023-05-20T08:35:07;95083.16;;;17.23;100.00
19457;BME280;9867;48.094;11.478;2023-05-20T08:37:35;95079.94;;;17.16;100.00
19457;BME280;9867;48.094;11.478;2023-05-20T08:40:03;95090.06;;;17.01;100.00
19457;BME280;9867;48.094;11.478;2023-05-20T08:42:33;95088.28;;;16.85;100.00
19457;BME280;9867;48.094;11.478;2023-05-20T08:45:02;95079.78;;;17.23;100.00
19457;BME280;9867;48.094;11.478;2023-05-20T08:47:30;95082.81;;;17.36;100.00
19457;BME280;9867;48.094;11.478;2023-05-20T08:49:58;95078.47;;;17.64;100.00
19457;BME280;9867;48.094;11.478;2023-05-20T08:52:29;95075.19;;;17.68;100.00
19457;BME280;9867;48.094;11.478;2023-05-20T08:54:59;95076.53;;;17.71;100.00
19457;BME280;9867;48.094;11.478;2023-05-20T08:57:27;95084.59;;;17.75;100.00
19457;BME280;9867;48.094;11.478;2023-05-20T08:59:55;95084.41;;;17.81;100.00
19457;BME280;9867;48.094;11.478;2023-05-20T09:02:23;95072.69;;;18.00;100.00
19457;BME280;9867;48.094;11.478;2023-05-20T09:04:51;95080.00;;;18.30;100.00
19457;BME280;9867;48.094;11.478;2023-05-20T09:07:25;95089.41;;;18.63;100.00
19457;BME280;9867;48.094;11.478;2023-05-20T09:09:55;95086.47;;;18.87;100.00
19457;BME280;9867;48.094;11.478;2023-05-20T09:12:23;95089.84;;;19.24;100.00
19457;BME280;9867;48.094;11.478;2023-05-20T09:14:51;95099.22;;;19.25;100.00
19457;BME280;9867;48.094;11.478;2023-05-20T09:17:20;95095.03;;;19.24;100.00
19457;BME280;9867;48.094;11.478;2023-05-20T09:19:48;95092.44;;;19.24;100.00
19457;BME280;9867;48.094;11.478;2023-05-20T09:22:21;95091.94;;;18.85;100.00
19457;BME280;9867;48.094;11.478;2023-05-20T09:24:49;95093.25;;;18.93;100.00
19457;BME280;9867;48.094;11.478;2023-05-20T09:27:19;95080.38;;;19.08;100.00
19457;BME280;9867;48.094;11.478;2023-05-20T09:29:47;95067.78;;;19.37;100.00
19457;BME280;9867;48.094;11.478;2023-05-20T09:32:15;95070.34;;;19.84;100.00
19457;BME280;9867;48.094;11.478;2023-05-20T09:34:45;95081.06;;;19.93;100.00
19457;BME280;9867;48.094;11.478;2023-05-20T09:37:16;95087.41;;;20.27;100.00
19457;BME280;9867;48.094;11.478;2023-05-20T09:39:55;95085.22;;;19.89;100.00
19457;BME280;9867;48.094;11.478;2023-05-20T09:42:30;95080.66;;;19.54;100.00
19457;BME280;9867;48.094;11.478;2023-05-20T09:45:03;95076.59;;;19.78;100.00
19457;BME280;9867;48.094;11.478;2023-05-20T09:47:31;95068.09;;;20.13;100.00
19457;BME280;9867;48.094;11.478;2023-05-20T09:50:00;95068.63;;;20.05;100.00
19457;BME280;9867;48.094;11.478;2023-05-20T09:52:30;95068.97;;;20.49;100.00
19457;BME280;9867;48.094;11.478;2023-05-20T09:54:58;95064.03;;;20.73;100.00
19457;BME280;9867;48.094;11.478;2023-05-20T09:57:29;95057.72;;;20.79;100.00
19457;BME280;9867;48.094;11.478;2023-05-20T09:59:57;95059.81;;;20.57;100.00
19457;BME280;9867;48.094;11.478;2023-05-20T10:02:25;95050.72;;;20.54;100.00
19457;BME280;9867;48.094;11.478;2023-05-20T10:04:54;95054.88;;;20.45;100.00
19457;BME280;9867;48.094;11.478;2023-05-20T10:07:41;95054.84;;;20.25;100.00
19457;BME280;9867;48.094;11.478;2023-05-20T10:10:21;95048.88;;;20.39;100.00
19457;BME280;9867;48.094;11.478;2023-05-20T10:13:02;95049.63;;;20.30;100.00
19457;BME280;9867;48.094;11.478;2023-05-20T10:15:40;95059.53;;;20.33;100.00
19457;BME280;9867;48.094;11.478;2023-05-20T10:18:46;95058.25;;;20.40;100.00
19457;BME280;9867;48.094;11.478;2023-05-20T10:21:20;95050.69;;;20.29;100.00
19457;BME280;9867;48.094;11.478;2023-05-20T10:23:50;95049.13;;;20.38;100.00
19457;BME280;9867;48.094;11.478;2023-05-20T10:26:18;95048.03;;;20.19;100.00
19457;BME280;9867;48.094;11.478;2023-05-20T10:28:48;95047.75;;;20.10;100.00
19457;BME280;9867;48.094;11.478;2023-05-20T10:31:19;95044.44;;;20.81;100.00
19457;BME280;9867;48.094;11.478;2023-05-20T10:33:50;95036.47;;;21.57;100.00
19457;BME280;9867;48.094;11.478;2023-05-20T10:36:22;95024.91;;;20.78;100.00
19457;BME280;9867;48.094;11.478;2023-05-20T10:38:52;95032.44;;;21.00;100.00
19457;BME280;9867;48.094;11.478;2023-05-20T10:41:22;95026.41;;;21.25;100.00
19457;BME280;9867;48.094;11.478;2023-05-20T10:44:00;95019.09;;;21.06;100.00
19457;BME280;9867;48.094;11.478;2023-05-20T10:46:29;95017.22;;;21.42;100.00
19457;BME280;9867;48.094;11.478;2023-05-20T10:49:17;95017.66;;;22.14;100.00
19457;BME280;9867;48.094;11.478;2023-05-20T10:51:52;95016.59;;;22.15;100.00
19457;BME280;9867;48.094;11.478;2023-05-20T10:54:21;95013.38;;;22.23;100.00
19457;BME280;9867;48.094;11.478;2023-05-20T10:56:51;95003.78;;;22.48;100.00
19457;BME280;9867;48.094;11.478;2023-05-20T10:59:20;95004.31;;;22.50;100.00
19457;BME280;9867;48.094;11.478;2023-05-20T11:01:49;94999.63;;;22.75;100.00
19457;BME280;9867;48.094;11.478;2023-05-20T11:04:17;95005.66;;;23.05;100.00
19457;BME280;9867;48.094;11.478;2023-05-20T11:06:49;94992.59;;;23.53;97.36
19457;BME280;9867;48.094;11.478;2023-05-20T11:09:19;94989.28;;;23.18;88.14
19457;BME280;9867;48.094;11.478;2023-05-20T11:11:48;94991.59;;;23.67;93.88
19457;BME280;9867;48.094;11.478;2023-05-20T11:14:16;94993.47;;;23.86;82.15
19457;BME280;9867;48.094;11.478;2023-05-20T11:16:50;95000.75;;;24.45;83.88
19457;BME280;9867;48.094;11.478;2023-05-20T11:19:19;94989.50;;;24.26;81.77
19457;BME280;9867;48.094;11.478;2023-05-20T11:21:47;94985.31;;;24.06;78.89
19457;BME280;9867;48.094;11.478;2023-05-20T11:24:24;94986.81;;;23.93;71.26
19457;BME280;9867;48.094;11.478;2023-05-20T11:26:53;94987.50;;;23.61;82.96
19457;BME280;9867;48.094;11.478;2023-05-20T11:29:21;94976.19;;;23.85;82.11
19457;BME280;9867;48.094;11.478;2023-05-20T11:31:51;94984.75;;;23.71;79.03
19457;BME280;9867;48.094;11.478;2023-05-20T11:34:19;94975.69;;;23.83;77.51
19457;BME280;9867;48.094;11.478;2023-05-20T11:36:55;94979.59;;;24.04;73.10
19457;BME280;9867;48.094;11.478;2023-05-20T11:39:23;94974.13;;;24.00;73.45
19457;BME280;9867;48.094;11.478;2023-05-20T11:41:52;94976.00;;;24.13;72.44
19457;BME280;9867;48.094;11.478;2023-05-20T11:44:20;94975.84;;;24.42;84.95
19457;BME280;9867;48.094;11.478;2023-05-20T11:46:48;94974.44;;;24.50;82.83
19457;BME280;9867;48.094;11.478;2023-05-20T11:49:17;94964.88;;;24.73;81.64
19457;BME280;9867;48.094;11.478;2023-05-20T11:51:45;94962.78;;;23.67;78.68
19457;BME280;9867;48.094;11.478;2023-05-20T11:54:13;94961.59;;;23.78;79.80
19457;BME280;9867;48.094;11.478;2023-05-20T11:56:42;94965.34;;;23.72;85.27
19457;BME280;9867;48.094;11.478;2023-05-20T11:59:10;94949.47;;;23.64;82.55
19457;BME280;9867;48.094;11.478;2023-05-20T12:01:40;94956.19;;;24.26;83.48
19457;BME280;9867;48.094;11.478;2023-05-20T12:04:09;94956.78;;;24.69;66.12
19457;BME280;9867;48.094;11.478;2023-05-20T12:06:39;94963.28;;;24.26;64.43
19457;BME280;9867;48.094;11.478;2023-05-20T12:09:09;94950.09;;;24.31;77.54
19457;BME280;9867;48.094;11.478;2023-05-20T12:11:39;94947.19;;;24.78;71.06
19457;BME280;9867;48.094;11.478;2023-05-20T12:14:08;94955.69;;;24.57;69.31
19457;BME280;9867;48.094;11.478;2023-05-20T12:16:36;94957.66;;;24.65;67.52
19457;BME280;9867;48.094;11.478;2023-05-20T12:19:04;94958.53;;;24.09;68.79
19457;BME280;9867;48.094;11.478;2023-05-20T12:21:34;94936.34;;;24.20;68.30
19457;BME280;9867;48.094;11.478;2023-05-20T12:24:03;94939.50;;;24.36;71.06
19457;BME280;9867;48.094;11.478;2023-05-20T12:26:34;94943.41;;;24.38;75.85
19457;BME280;9867;48.094;11.478;2023-05-20T12:29:02;94940.97;;;24.42;69.35
19457;BME280;9867;48.094;11.478;2023-05-20T12:31:29;94937.22;;;23.97;69.29
19457;BME280;9867;48.094;11.478;2023-05-20T12:34:00;94942.72;;;24.33;78.76
19457;BME280;9867;48.094;11.478;2023-05-20T12:36:28;94938.84;;;24.44;72.75
19457;BME280;9867;48.094;11.478;2023-05-20T12:38:56;94938.88;;;24.58;80.00
19457;BME280;9867;48.094;11.478;2023-05-20T12:41:26;94942.59;;;24.70;70.57
19457;BME280;9867;48.094;11.478;2023-05-20T12:43:53;94943.03;;;25.05;70.69
19457;BME280;9867;48.094;11.478;2023-05-20T12:46:21;94947.06;;;25.52;66.47
19457;BME280;9867;48.094;11.478;2023-05-20T12:48:49;94942.06;;;25.78;57.02
19457;BME280;9867;48.094;11.478;2023-05-20T12:51:17;94935.84;;;25.24;60.39
19457;BME280;9867;48.094;11.478;2023-05-20T12:53:46;94926.22;;;25.56;59.56
19457;BME280;9867;48.094;11.478;2023-05-20T12:56:14;94935.38;;;25.58;59.35
19457;BME280;9867;48.094;11.478;2023-05-20T12:58:43;94935.88;;;25.60;62.72
19457;BME280;9867;48.094;11.478;2023-05-20T13:01:11;94931.63;;;25.37;59.08
19457;BME280;9867;48.094;11.478;2023-05-20T13:03:39;94936.25;;;25.54;60.55
19457;BME280;9867;48.094;11.478;2023-05-20T13:06:07;94936.75;;;25.56;64.01